AGROMETEOROLOŠKI PORTAL
Vinorodna pokrajina

Temelj dobrega kmetovanja.

Izpis lokacij s podatki meritev in opazovanj za Osrednja Slovenija

Osrednja Slovenija
Lokacija Nadmorska višina Lega Višina meritve senzorja Datum in čas meritve Dosežena min. temperatura RH Veter (m/s) Temp. rosišča Temp. mokrega termometra
Borovnica 288 m 2 m 21.4.2024 22:00 3,3 83,6 0,1 0,8 2,2
Brdo pri Lukovici 368 m J 2 m 21.4.2024 22:00 2,7 78,6 0,4 -0,6 1,3
Češnjevek (Cerklje) 405 m S 2 m 21.4.2024 22:00 2,1 91,6 0,3 0,9 1,6
Gabrska Gora 487 m 2 m 21.4.2024 22:00 3,2 89,4 0,5 1,6 2,5
Jablje 302 m S 2 m 21.4.2024 22:00 5,5 82,1 0,1 2,7 4,2
Jablje 302 m S 20 cm 21.4.2024 22:00 5,5 82,1 0,1 2,7 4,2
Kamnik 377 m JV 2 m 21.4.2024 22:00 2,8 83,7 0,5 0,3 1,7
Kovor 514 m 20 cm 21.4.2024 22:00 0,6 92,9 0,4 -0,4 0,2
Kovor 514 m 2 m 21.4.2024 22:00 0,6 92,9 0,4 -0,4 0,2
Ljubljana KIS 297 m S 2 m 21.4.2024 22:00 5,1 81,8 0,1 2,3 3,8
Podbrezje 456 m JV 2 m 21.4.2024 22:00 3,7 88,4 0,4 2,0 2,9
Polževo 612 m 2 m 21.4.2024 22:00 2,9 94,3 0,1 2,1 2,5
Resje 503 m 2 m 21.4.2024 22:00 2,9 94,5 0,6 2,1 2,5
Šentjakob 279 m 2 m 21.4.2024 22:00 5,0 84,6 0,1 2,6 3,9
Šentjakob 279 m 20 cm 21.4.2024 22:00 5,0 84,6 0,1 2,6 3,9
Vnajnarje 667 m S 2 m 21.4.2024 22:00 3,4 87,0 0,1 1,5 2,5
Žabnica (Dorfarje) 372 m 2 m 21.4.2024 22:00 4,9 83,3 0,3 2,3 3,7
BOHINJSKA ČEŠNJICA - ARSO 596 m 2 m 21.4.2024 22:00 1,5 82,4 0,4 -1,2 0,4
BORŠT PRI GORENJI VASI ARSO 532 m 2 m 21.4.2024 22:00 2,9 86,3 0,3 0,9 2,0
BRNIK - LETALIŠČE - ARSO 364 m 2 m 21.4.2024 22:00 4,1 90,9 0,2 2,8 3,5
Lesce 515 m 2 m 21.4.2024 22:00 1,1 92,4 0,4 0,0 0,6
LITIJA ARSO 263 m 2 m 21.4.2024 22:00 4,2 86,5 0,2 2,2 3,3
Ljubljana - Bežigrad ARSO 299 m 2 m 21.4.2024 22:00 5,1 81,8 0,1 2,3 3,8
LOGATEC - ARSO 486 m 2 m 21.4.2024 22:00 3,3 86,0 0,4 1,2 2,4
NOVA VAS - BLOKE - ARSO 718 m 2 m 21.4.2024 22:00 1,8 91,6 0,2 0,6 1,3
VRHNIKA ARSO 367 m 2 m 21.4.2024 22:00 5,0 79,0 0,4 1,7 3,5
Jeprca DRSI 360 m 2 m 21.4.2024 22:00 4,9 83,3 0,3 2,3 3,7
Kranj - Delavski most DRSI 380 m 2 m 21.4.2024 22:00 4,4 84,9 0,3 2,1 3,4
Krtina 1 DRSI 308 m 2 m 21.4.2024 22:00 4,3 85,5 0,1 2,1 3,3
Moste pri Komendi DRSI 331 m 2 m 21.4.2024 22:00 5,0 82,5 0,2 2,3 3,8
Podvin DRSI 489 m 2 m 21.4.2024 22:00 2,9 94,5 0,6 2,1 2,5
Vir pri Domžalah DRSI 308 m 2 m 21.4.2024 22:00 4,7 83,6 0,1 2,2 3,6
Vrhnika AC priključek DRSI 293 m 2 m 21.4.2024 22:00 4,7 82,5 0,3 2,0 3,5
Postaje, katerih podatke prikazujemo na portalu, so postaje proizvajalca Adcon Telemetry in Pessl (UVHVVR/MKGP), postaje ARSO in postaje DRSI.

IZJAVA O OMEJITVI ODGOVORNOSTI: Uprava Republike Slovenije za varno hrano, veterinarstvo in varstvo rastlin (Uprava) skupaj z Opazovalno napovedovalno službo zdravstvenega varstva rastlin skrbi za nemoteno delovanje in vzdrževanje meteoroloških podatkov iz mreže agrometeoroloških postaj (Adcon Telemety). Agrometeorološki podatki, ki so objavljeni na tej strani, so zgolj informativne narave. Za morebitne vsebinske napake, do katerih lahko pride zaradi tehničnih težav pri vzdrževanju mreže, napak merilne opreme ali drugih nepredvidljivih vzrokov, napak pri vnosu, posodabljanja vsebin, Uprava ne prevzema odgovornosti, kakor tudi ne zaradi nepravilnega delovanja in/ali nedostopnosti vsebine teh spletnih strani. Uprava tudi ne prevzema odgovornosti za kakršnokoli neposredno ali posredno izgubo oziroma škodo, materialno in nematerialno, ki bi nastala zaradi dostopa, uporabe ali odločitve, sprejete na podlagi informacij, objavljenih na teh spletnih straneh, kakor tudi ne zaradi nepravilnega delovanja in/ali nedostopnosti vsebine teh spletnih strani. Uprava si pridržuje pravico do spremembe oziroma umika vsebine, deloma ali v celoti, brez predhodne najave. Vsak poskus nepooblaščenega spreminjanja ali poškodovanja spletnih strani, kot tudi nepooblaščen dostop do informacij mimo spletnih strani in do drugih vsebin, je kaznivo dejanje. Pri uporabi vsebin, objavljenih na portalu, je potrebno navesti vir podatkov (UVHVVR, Agrometeorološki portal Slovenije) in upoštevati avtorske pravice.